Time;durP1;ratioP1;P1;durP2;ratioP2;P2;SDS_P1;SDS_P2;PMS_P1;PMS_P2;Temp;Humidity;BMP_temperature;BMP_pressure;BME280_temperature;BME280_humidity;BME280_pressure;Samples;Min_cycle;Max_cycle;Signal;HPM_P1;HPM_P2
2021/08/26 00:07:26;;;;;;;3.40;1.40;;;;;;;21.60;56.74;101641.75;5032266;28;20044;-61
2021/08/26 00:09:52;;;;;;;2.80;1.38;;;;;;;21.60;56.60;101636.47;5032747;28;20025;-62
2021/08/26 00:12:19;;;;;;;3.03;1.30;;;;;;;21.60;56.63;101625.84;5032723;28;20052;-62
2021/08/26 00:14:44;;;;;;;3.60;1.42;;;;;;;21.59;56.77;101625.03;5031850;28;20025;-62
2021/08/26 00:17:10;;;;;;;3.58;1.33;;;;;;;21.60;56.40;101617.88;5032625;28;20032;-62
2021/08/26 00:19:38;;;;;;;2.78;1.40;;;;;;;21.58;56.87;101612.72;5032498;28;20446;-62
2021/08/26 00:22:04;;;;;;;2.50;1.10;;;;;;;21.56;56.76;101615.50;5031526;28;20388;-62
2021/08/26 00:24:29;;;;;;;3.20;1.27;;;;;;;21.59;56.87;101610.91;5032592;28;20032;-62
2021/08/26 00:26:55;;;;;;;2.40;1.10;;;;;;;21.58;56.83;101615.38;5032158;28;20025;-61
2021/08/26 00:29:20;;;;;;;3.07;1.20;;;;;;;21.58;56.78;101617.19;5031702;28;20100;-62
2021/08/26 00:31:45;;;;;;;3.10;1.30;;;;;;;21.58;56.93;101614.53;5031630;28;20306;-62
2021/08/26 00:34:11;;;;;;;3.50;1.30;;;;;;;21.57;56.88;101613.72;5032167;28;20060;-62
2021/08/26 00:36:36;;;;;;;3.23;1.20;;;;;;;21.58;56.80;101611.88;5031821;28;20029;-63
2021/08/26 00:39:01;;;;;;;3.40;1.40;;;;;;;21.56;56.93;101612.84;5032120;28;20747;-62
2021/08/26 00:41:27;;;;;;;3.15;1.33;;;;;;;21.57;56.93;101608.41;5032455;28;20021;-62
2021/08/26 00:43:52;;;;;;;3.03;1.20;;;;;;;21.56;57.00;101607.53;5031197;28;20036;-65
2021/08/26 00:46:18;;;;;;;3.05;1.30;;;;;;;21.53;57.02;101599.00;5032032;28;20488;-62
2021/08/26 00:48:47;;;;;;;2.55;1.10;;;;;;;21.55;56.80;101594.41;5032066;28;20025;-62
2021/08/26 00:51:13;;;;;;;3.53;1.38;;;;;;;21.56;56.88;101593.44;5031328;28;20041;-61
2021/08/26 00:53:39;;;;;;;3.13;1.20;;;;;;;21.54;57.17;101582.13;5032301;28;20017;-62
2021/08/26 00:56:08;;;;;;;2.65;1.13;;;;;;;21.55;56.95;101592.63;5031789;28;20100;-62
2021/08/26 00:58:34;;;;;;;2.00;1.00;;;;;;;21.53;57.03;101589.22;5031225;28;20018;-61
2021/08/26 01:01:03;;;;;;;3.40;1.20;;;;;;;21.55;57.07;101589.09;5031661;28;20031;-61
2021/08/26 01:03:40;;;;;;;2.38;1.08;;;;;;;21.51;57.01;101579.75;5031850;28;20061;-61
2021/08/26 01:06:13;;;;;;;4.03;1.25;;;;;;;21.52;57.05;101592.00;5031650;28;20025;-62
2021/08/26 01:08:45;;;;;;;2.80;1.30;;;;;;;21.54;57.24;101590.91;5032087;28;20056;-61
2021/08/26 01:11:12;;;;;;;3.63;1.20;;;;;;;21.54;56.89;101590.91;5031348;28;20025;-62
2021/08/26 01:13:40;;;;;;;2.97;1.02;;;;;;;21.53;56.89;101585.75;5031732;28;20029;-62
2021/08/26 01:16:17;;;;;;;2.28;1.08;;;;;;;21.52;57.20;101581.41;5031445;28;20075;-62
2021/08/26 01:18:45;;;;;;;2.30;1.13;;;;;;;21.52;57.12;101569.00;5031061;28;20064;-63
2021/08/26 01:21:12;;;;;;;2.25;1.10;;;;;;;21.51;57.05;101569.97;5031671;28;20025;-61
2021/08/26 01:23:42;;;;;;;2.35;1.05;;;;;;;21.48;57.06;101564.91;5031778;28;20461;-62
2021/08/26 01:26:09;;;;;;;2.47;1.00;;;;;;;21.51;57.12;101563.81;5030721;28;20104;-62
2021/08/26 01:28:40;;;;;;;2.38;1.10;;;;;;;21.51;57.21;101572.63;5031982;28;20030;-62
2021/08/26 01:31:05;;;;;;;2.70;1.15;;;;;;;21.51;57.15;101569.13;5031416;28;20028;-62
2021/08/26 01:33:32;;;;;;;2.70;1.20;;;;;;;21.50;56.88;101567.44;5030976;28;20030;-62
2021/08/26 01:35:58;;;;;;;2.20;1.17;;;;;;;21.50;57.06;101570.91;5031519;28;20022;-62
2021/08/26 01:38:24;;;;;;;2.40;1.10;;;;;;;21.50;57.35;101556.84;5031670;28;20079;-61
2021/08/26 01:40:49;;;;;;;2.08;0.93;;;;;;;21.50;57.02;101559.47;5030498;28;20159;-62
2021/08/26 01:43:16;;;;;;;2.00;0.95;;;;;;;21.50;57.05;101548.88;5032922;28;20037;-61
2021/08/26 01:45:45;;;;;;;1.95;1.02;;;;;;;21.51;57.06;101553.22;5035541;28;20021;-61
2021/08/26 01:48:18;;;;;;;1.92;1.10;;;;;;;21.49;57.16;101547.19;5035740;28;20432;-61
2021/08/26 01:50:44;;;;;;;2.75;1.20;;;;;;;21.50;57.27;101554.19;5034953;28;20045;-61
2021/08/26 01:53:10;;;;;;;2.28;1.10;;;;;;;21.48;57.20;101551.66;5034467;28;20044;-63
2021/08/26 01:55:36;;;;;;;2.25;1.10;;;;;;;21.48;57.16;101550.78;5035560;28;20022;-63
2021/08/26 01:58:02;;;;;;;3.22;1.10;;;;;;;21.50;57.05;101554.19;5034752;28;20401;-61
2021/08/26 02:00:27;;;;;;;2.70;1.10;;;;;;;21.49;57.15;101547.19;5034557;28;20035;-64
2021/08/26 02:02:56;;;;;;;2.83;1.08;;;;;;;21.46;57.46;101542.09;5034745;28;20037;-61
2021/08/26 02:05:21;;;;;;;2.45;1.10;;;;;;;21.47;57.40;101544.63;5035021;28;20075;-62
2021/08/26 02:07:51;;;;;;;2.90;1.17;;;;;;;21.45;57.40;101538.63;5033951;28;20033;-61
2021/08/26 02:10:17;;;;;;;2.85;1.20;;;;;;;21.45;57.06;101541.28;5035087;28;20278;-62
2021/08/26 02:12:42;;;;;;;3.10;1.30;;;;;;;21.45;57.28;101535.97;5035049;28;20468;-62
2021/08/26 02:15:09;;;;;;;2.60;0.95;;;;;;;21.46;57.14;101536.81;5033637;28;20465;-62
2021/08/26 02:17:34;;;;;;;2.60;1.17;;;;;;;21.47;57.34;101539.31;5034613;28;20033;-62
2021/08/26 02:20:00;;;;;;;1.60;0.85;;;;;;;21.45;57.40;101538.63;5034411;28;20033;-62
2021/08/26 02:22:25;;;;;;;2.10;1.15;;;;;;;21.46;57.36;101537.66;5033591;28;20128;-62
2021/08/26 02:24:50;;;;;;;2.15;1.00;;;;;;;21.45;57.11;101540.44;5034368;28;20429;-62
2021/08/26 02:27:16;;;;;;;2.17;1.03;;;;;;;21.47;57.30;101543.81;5034724;28;20445;-62
2021/08/26 02:29:41;;;;;;;1.67;0.90;;;;;;;21.46;57.28;101542.09;5033944;28;20309;-62
2021/08/26 02:32:07;;;;;;;2.35;0.90;;;;;;;21.44;57.32;101538.75;5034350;28;20021;-62
2021/08/26 02:34:35;;;;;;;2.15;0.98;;;;;;;21.45;57.21;101546.56;5034699;28;20025;-62
2021/08/26 02:37:00;;;;;;;2.90;1.05;;;;;;;21.45;57.31;101537.78;5033267;28;20021;-62
2021/08/26 02:39:25;;;;;;;2.53;0.95;;;;;;;21.43;57.24;101539.72;5034540;28;20029;-62
2021/08/26 02:41:51;;;;;;;2.72;0.82;;;;;;;21.44;57.26;101539.59;5034091;28;20025;-63
2021/08/26 02:44:16;;;;;;;2.88;1.08;;;;;;;21.45;57.52;101535.13;5033792;28;20546;-63
2021/08/26 02:46:41;;;;;;;2.88;1.23;;;;;;;21.43;57.20;101539.72;5034385;28;20022;-62
2021/08/26 02:49:09;;;;;;;2.13;0.93;;;;;;;21.44;56.98;101531.63;5033248;28;20026;-62
2021/08/26 02:51:37;;;;;;;2.00;0.90;;;;;;;21.44;57.26;101536.94;5033964;28;20301;-62
2021/08/26 02:54:03;;;;;;;3.25;1.30;;;;;;;21.43;57.19;101532.63;5033759;28;20026;-62
2021/08/26 02:56:28;;;;;;;1.57;0.80;;;;;;;21.43;57.30;101531.75;5033330;28;20076;-62
2021/08/26 02:58:56;;;;;;;2.17;0.90;;;;;;;21.42;57.29;101524.78;5033900;28;20275;-62
2021/08/26 03:01:21;;;;;;;2.03;0.93;;;;;;;21.42;57.33;101516.84;5034021;28;20429;-62
2021/08/26 03:03:46;;;;;;;1.60;0.90;;;;;;;21.40;57.42;101524.09;5033089;28;20079;-62
2021/08/26 03:06:14;;;;;;;1.80;0.90;;;;;;;21.43;57.33;101529.97;5033830;28;20350;-63
2021/08/26 03:08:40;;;;;;;2.25;1.13;;;;;;;21.41;57.39;101526.59;5034093;28;20104;-63
2021/08/26 03:11:05;;;;;;;2.85;1.20;;;;;;;21.41;57.40;101523.94;5033043;28;20105;-62
2021/08/26 03:13:30;;;;;;;2.47;1.00;;;;;;;21.42;57.46;101528.28;5033670;28;20462;-62
2021/08/26 03:15:56;;;;;;;2.13;0.90;;;;;;;21.42;57.44;101524.78;5033269;28;20029;-62
2021/08/26 03:18:21;;;;;;;2.28;1.00;;;;;;;21.42;57.45;101524.78;5032924;28;20029;-62
2021/08/26 03:20:47;;;;;;;2.22;1.00;;;;;;;21.42;57.19;101527.44;5033198;28;20021;-62
2021/08/26 03:23:12;;;;;;;2.75;1.10;;;;;;;21.40;57.09;101534.69;5033551;28;20117;-62
2021/08/26 03:25:38;;;;;;;2.58;0.80;;;;;;;21.41;57.32;101528.41;5032937;28;20022;-62
2021/08/26 03:28:06;;;;;;;2.20;0.90;;;;;;;21.42;57.26;101532.75;5033394;28;20036;-62
2021/08/26 03:30:31;;;;;;;2.28;0.88;;;;;;;21.40;57.40;101527.56;5033488;28;20100;-62
2021/08/26 03:32:59;;;;;;;2.25;0.85;;;;;;;21.40;57.15;101532.88;5032394;28;20454;-62
2021/08/26 03:35:24;;;;;;;3.25;1.00;;;;;;;21.40;57.32;101532.88;5033316;28;20022;-62
2021/08/26 03:37:50;;;;;;;3.38;1.05;;;;;;;21.38;57.11;101526.88;5033060;28;20036;-62
2021/08/26 03:40:15;;;;;;;2.63;1.10;;;;;;;21.40;57.07;101534.69;5032753;28;20133;-62
2021/08/26 03:42:40;;;;;;;2.30;1.10;;;;;;;21.40;57.21;101542.66;5033016;28;20279;-61
2021/08/26 03:45:07;;;;;;;2.75;1.25;;;;;;;21.24;57.24;101520.06;5032836;28;20167;-62
2021/08/26 03:47:32;;;;;;;3.47;1.17;;;;;;;21.40;57.21;101540.00;5032297;28;20025;-62
2021/08/26 03:49:57;;;;;;;2.55;1.00;;;;;;;21.36;57.19;101534.97;5032851;28;20041;-62
2021/08/26 03:52:23;;;;;;;3.15;1.10;;;;;;;21.38;57.00;101535.66;5031809;28;20050;-61
2021/08/26 03:54:48;;;;;;;3.50;1.20;;;;;;;21.38;57.00;101537.47;5032802;28;20049;-62
2021/08/26 03:57:13;;;;;;;3.13;1.20;;;;;;;21.38;57.08;101537.47;5033071;28;20095;-62
2021/08/26 03:59:39;;;;;;;3.50;1.30;;;;;;;21.38;57.01;101532.19;5031972;28;20026;-62
2021/08/26 04:02:04;;;;;;;3.33;1.15;;;;;;;21.36;57.21;101534.97;5032371;28;20041;-62
2021/08/26 04:04:29;;;;;;;2.60;1.08;;;;;;;21.38;57.00;101537.47;5032708;28;20021;-62
2021/08/26 04:06:55;;;;;;;3.20;1.15;;;;;;;21.31;57.09;101529.19;5031035;28;20025;-62
2021/08/26 04:09:20;;;;;;;3.42;1.30;;;;;;;21.37;57.16;101533.97;5032789;28;20432;-61
2021/08/26 04:11:45;;;;;;;4.20;1.27;;;;;;;21.36;57.01;101534.97;5032513;28;20025;-62
2021/08/26 04:14:11;;;;;;;3.92;1.10;;;;;;;21.35;57.09;101530.59;5031850;28;20373;-62
2021/08/26 04:16:36;;;;;;;4.22;1.65;;;;;;;21.32;57.00;101528.22;5032503;28;20060;-63
2021/08/26 04:19:04;;;;;;;3.65;1.30;;;;;;;21.33;57.23;101532.56;5032171;28;20029;-62
2021/08/26 04:21:34;;;;;;;2.65;1.20;;;;;;;21.35;57.06;101533.25;5031759;28;20030;-62
2021/08/26 04:23:59;;;;;;;3.70;1.20;;;;;;;21.35;56.85;101527.13;5032089;28;20500;-62
2021/08/26 04:26:27;;;;;;;3.47;1.55;;;;;;;21.34;56.93;101523.63;5032344;28;20053;-62
2021/08/26 04:28:53;;;;;;;3.70;1.40;;;;;;;21.34;57.10;101520.97;5031581;28;20091;-62
2021/08/26 04:31:18;;;;;;;2.83;1.20;;;;;;;21.34;56.99;101522.78;5032571;28;20121;-62
2021/08/26 04:33:44;;;;;;;3.85;1.50;;;;;;;21.32;56.87;101520.25;5031951;28;20072;-63
2021/08/26 04:36:09;;;;;;;3.88;1.20;;;;;;;21.33;56.76;101531.69;5031615;28;20025;-62
2021/08/26 04:38:34;;;;;;;5.55;1.30;;;;;;;21.30;56.79;101524.00;5032203;28;20041;-61
2021/08/26 04:41:00;;;;;;;3.88;1.40;;;;;;;21.33;56.87;101526.41;5032086;28;20025;-61
2021/08/26 04:43:25;;;;;;;2.95;1.30;;;;;;;21.33;56.94;101523.75;5031572;28;20036;-61
2021/08/26 04:45:50;;;;;;;4.82;1.30;;;;;;;21.32;56.94;101528.22;5032016;28;20021;-61
2021/08/26 04:48:16;;;;;;;5.57;1.57;;;;;;;21.33;56.70;101526.41;5031958;28;20474;-61
2021/08/26 04:50:43;;;;;;;4.73;1.40;;;;;;;21.32;56.73;101522.91;5031243;28;20302;-62
2021/08/26 04:53:09;;;;;;;3.28;1.27;;;;;;;21.30;56.67;101511.59;5031986;28;20461;-62
2021/08/26 04:55:34;;;;;;;3.77;1.20;;;;;;;21.32;56.81;101508.81;5032014;28;20032;-61
2021/08/26 04:57:59;;;;;;;2.95;1.10;;;;;;;21.23;56.87;101499.00;5031156;28;20125;-62
2021/08/26 05:00:25;;;;;;;4.07;1.50;;;;;;;21.31;56.52;101515.91;5032077;28;20025;-62
2021/08/26 05:02:53;;;;;;;5.85;1.70;;;;;;;21.25;56.65;101507.66;5030854;28;20029;-62
2021/08/26 05:05:18;;;;;;;3.80;1.40;;;;;;;21.30;56.62;101513.41;5032064;28;20047;-62
2021/08/26 05:07:43;;;;;;;4.60;1.50;;;;;;;21.28;56.52;101508.22;5031874;28;20030;-62
2021/08/26 05:10:12;;;;;;;4.30;1.50;;;;;;;21.29;56.54;101509.09;5031190;28;20035;-61
2021/08/26 05:12:43;;;;;;;5.43;1.65;;;;;;;21.30;56.66;101513.41;5031968;28;20638;-62
2021/08/26 05:15:09;;;;;;;4.55;1.70;;;;;;;21.29;56.52;101511.75;5031945;28;20025;-61
2021/08/26 05:17:34;;;;;;;4.45;1.80;;;;;;;21.30;56.44;101510.75;5032902;28;20129;-61
2021/08/26 05:19:59;;;;;;;4.07;1.70;;;;;;;21.28;56.71;101512.69;5035636;28;20075;-62
2021/08/26 05:22:25;;;;;;;5.45;1.63;;;;;;;21.28;56.41;101512.69;5035518;28;20030;-62
2021/08/26 05:24:51;;;;;;;4.10;2.03;;;;;;;21.29;56.42;101514.38;5034797;28;20101;-62
2021/08/26 05:27:18;;;;;;;5.85;1.65;;;;;;;21.27;56.21;101511.00;5035695;28;20362;-62
2021/08/26 05:29:44;;;;;;;4.95;1.88;;;;;;;21.23;56.47;101502.47;5035394;28;20030;-62
2021/08/26 05:32:09;;;;;;;5.18;1.50;;;;;;;21.22;56.57;101495.50;5034936;28;20588;-62
2021/08/26 05:34:35;;;;;;;5.57;1.50;;;;;;;21.27;56.67;101514.50;5035778;28;20119;-61
2021/08/26 05:37:00;;;;;;;4.00;1.60;;;;;;;21.27;56.41;101514.50;5035117;28;20028;-61
2021/08/26 05:39:25;;;;;;;3.53;1.20;;;;;;;21.27;56.36;101517.16;5034532;28;20274;-62
2021/08/26 05:41:50;;;;;;;3.83;1.30;;;;;;;21.25;56.43;101508.47;5035139;28;20091;-62
2021/08/26 05:44:16;;;;;;;5.20;1.60;;;;;;;21.27;56.44;101506.56;5035290;28;20291;-62
2021/08/26 05:46:43;;;;;;;6.03;2.03;;;;;;;21.27;56.68;101506.56;5034476;28;20302;-62
2021/08/26 05:49:09;;;;;;;4.47;1.67;;;;;;;21.25;56.38;101510.31;5035158;28;20377;-61
2021/08/26 05:51:38;;;;;;;4.03;1.80;;;;;;;21.27;56.27;101508.34;5035252;28;20107;-63
2021/08/26 05:54:08;;;;;;;4.28;1.48;;;;;;;21.26;56.27;101507.53;5035350;28;20026;-62
2021/08/26 05:56:36;;;;;;;5.45;1.83;;;;;;;21.26;56.31;101507.53;5035901;28;20045;-63
2021/08/26 05:59:02;;;;;;;5.43;1.88;;;;;;;21.24;56.39;101501.53;5034482;28;20031;-62
2021/08/26 06:01:30;;;;;;;4.43;1.48;;;;;;;21.26;56.28;101499.56;5034955;28;20405;-63
2021/08/26 06:03:56;;;;;;;3.85;1.38;;;;;;;21.23;56.49;101493.69;5034876;28;20025;-63
2021/08/26 06:06:21;;;;;;;3.78;1.70;;;;;;;21.25;56.07;101500.53;5034311;28;20025;-62
2021/08/26 06:08:50;;;;;;;6.25;1.85;;;;;;;21.22;56.31;101490.22;5034747;28;20025;-61
2021/08/26 06:11:15;;;;;;;4.20;1.42;;;;;;;21.23;56.61;101505.13;5034529;28;20018;-61
2021/08/26 06:13:43;;;;;;;4.60;1.70;;;;;;;21.23;56.54;101501.66;5033601;28;20021;-63
2021/08/26 06:16:09;;;;;;;4.47;1.60;;;;;;;21.19;56.58;101491.31;5035087;28;20034;-65
2021/08/26 06:18:34;;;;;;;6.50;1.70;;;;;;;21.25;56.97;101503.19;5034825;28;20432;-64
2021/08/26 06:20:59;;;;;;;4.53;2.05;;;;;;;21.27;57.04;101517.16;5033473;28;20293;-63
2021/08/26 06:23:25;;;;;;;9.30;2.07;;;;;;;21.28;56.67;101516.19;5034540;28;20056;-63
2021/08/26 06:25:51;;;;;;;5.57;1.80;;;;;;;21.32;57.06;101516.78;5034188;28;20673;-62
2021/08/26 06:28:16;;;;;;;6.10;1.70;;;;;;;21.32;57.05;101511.47;5033208;28;20136;-63
2021/08/26 06:30:41;;;;;;;7.28;2.20;;;;;;;21.33;57.03;101514.00;5034297;28;20378;-64
2021/08/26 06:33:09;;;;;;;6.30;1.70;;;;;;;21.34;56.92;101518.31;5034287;28;20496;-62
2021/08/26 06:35:36;;;;;;;7.07;1.65;;;;;;;21.32;57.13;101509.66;5033671;28;20282;-64
2021/08/26 06:38:02;;;;;;;5.70;1.80;;;;;;;21.35;57.11;101517.34;5033978;28;20045;-65
2021/08/26 06:40:27;;;;;;;4.32;1.70;;;;;;;21.37;57.15;101511.91;5034156;28;20156;-62
2021/08/26 06:42:52;;;;;;;5.57;1.93;;;;;;;21.34;57.10;101507.72;5032955;28;20041;-65
2021/08/26 06:45:18;;;;;;;5.32;1.83;;;;;;;21.37;57.20;101518.06;5034336;28;20385;-62
2021/08/26 06:47:43;;;;;;;5.77;1.80;;;;;;;21.37;57.08;101522.53;5034011;28;20029;-65
2021/08/26 06:50:09;;;;;;;6.70;2.00;;;;;;;21.38;57.38;101521.56;5033453;28;20798;-64
2021/08/26 06:52:34;;;;;;;6.97;1.90;;;;;;;21.36;57.49;101524.34;5033696;28;20481;-63
2021/08/26 06:55:00;;;;;;;5.03;1.83;;;;;;;21.39;57.37;101520.56;5033486;28;20041;-64
2021/08/26 06:57:27;;;;;;;4.67;1.70;;;;;;;21.40;57.14;101519.63;5033597;28;20045;-73
2021/08/26 06:59:56;;;;;;;5.90;1.60;;;;;;;21.40;57.45;101524.91;5033784;28;20285;-65
2021/08/26 07:02:21;;;;;;;4.85;1.58;;;;;;;21.40;57.58;101524.09;5033016;28;20053;-62
2021/08/26 07:04:47;;;;;;;6.57;2.45;;;;;;;21.43;57.65;101521.16;5033514;28;20434;-61
2021/08/26 07:07:12;;;;;;;6.33;1.70;;;;;;;21.43;57.64;101518.50;5033818;28;20090;-64
2021/08/26 07:09:37;;;;;;;6.33;2.00;;;;;;;21.45;57.11;101514.75;5033006;28;20279;-63
2021/08/26 07:12:03;;;;;;;5.95;1.90;;;;;;;21.46;57.79;101521.75;5033342;28;20784;-66
2021/08/26 07:14:28;;;;;;;9.73;3.42;;;;;;;21.49;57.62;101521.53;5033744;28;20026;-67
2021/08/26 07:16:54;;;;;;;6.78;2.00;;;;;;;21.49;57.79;101521.53;5032650;28;20541;-65
2021/08/26 07:19:19;;;;;;;5.93;1.90;;;;;;;21.50;57.94;101525.00;5033554;28;20544;-61
2021/08/26 07:21:45;;;;;;;5.95;2.10;;;;;;;21.51;57.63;101532.84;5032930;28;20539;-62
2021/08/26 07:24:10;;;;;;;10.45;2.10;;;;;;;21.51;57.83;101524.06;5032655;28;20029;-62
2021/08/26 07:26:35;;;;;;;8.00;2.00;;;;;;;21.53;57.95;101524.75;5033230;28;20021;-65
2021/08/26 07:29:01;;;;;;;9.20;1.80;;;;;;;21.53;58.00;101530.88;5032934;28;20029;-61
2021/08/26 07:31:26;;;;;;;6.83;2.13;;;;;;;21.54;57.59;101529.94;5032608;28;20025;-64
2021/08/26 07:33:54;;;;;;;10.50;3.03;;;;;;;21.55;57.92;101533.41;5033829;28;20759;-66
2021/08/26 07:36:19;;;;;;;7.75;2.22;;;;;;;21.58;58.07;101533.16;5034206;28;20274;-63
2021/08/26 07:38:45;;;;;;;4.78;1.50;;;;;;;21.59;57.89;101526.88;5033230;28;20377;-64
2021/08/26 07:41:13;;;;;;;6.28;1.92;;;;;;;21.61;58.01;101532.88;5032515;28;20033;-65
2021/08/26 07:43:38;;;;;;;7.07;1.90;;;;;;;21.60;57.75;101523.25;5033982;28;20033;-63
2021/08/26 07:46:14;;;;;;;5.93;1.70;;;;;;;21.62;58.01;101520.47;5035972;28;20029;-65
2021/08/26 07:48:39;;;;;;;6.43;1.83;;;;;;;21.60;58.06;101525.91;5036448;28;20332;-63
2021/08/26 07:51:04;;;;;;;6.05;1.65;;;;;;;21.62;57.88;101517.81;5032889;28;20140;-63
2021/08/26 07:53:31;;;;;;;5.32;1.63;;;;;;;21.62;57.81;101516.00;5033377;28;20033;-62
2021/08/26 07:55:57;;;;;;;5.75;1.50;;;;;;;21.67;58.02;101515.63;5032997;28;20041;-63
2021/08/26 07:58:22;;;;;;;5.05;1.40;;;;;;;21.68;58.10;101518.16;5033311;28;20022;-63
2021/08/26 08:00:50;;;;;;;7.75;1.80;;;;;;;21.70;57.86;101512.72;5032127;28;20022;-62
2021/08/26 08:03:15;;;;;;;4.95;1.60;;;;;;;21.71;58.07;101509.94;5033063;28;20037;-65
2021/08/26 08:05:40;;;;;;;6.40;1.83;;;;;;;21.72;57.99;101511.59;5032196;28;20030;-61
2021/08/26 08:08:06;;;;;;;6.68;1.67;;;;;;;21.72;57.69;101519.53;5032649;28;20080;-63
2021/08/26 08:10:31;;;;;;;7.07;1.67;;;;;;;21.71;57.88;101514.38;5032670;28;20481;-62
2021/08/26 08:12:59;;;;;;;8.43;1.88;;;;;;;21.69;58.12;101511.84;5031905;28;20282;-62
2021/08/26 08:15:25;;;;;;;7.25;2.00;;;;;;;21.72;57.94;101516.06;5032685;28;20100;-62
2021/08/26 08:17:50;;;;;;;6.32;1.70;;;;;;;21.72;57.98;101516.88;5032580;28;20488;-63
2021/08/26 08:20:15;;;;;;;4.33;1.67;;;;;;;21.72;58.14;101516.88;5031875;28;20029;-62
2021/08/26 08:22:40;;;;;;;6.70;2.13;;;;;;;21.74;57.90;101517.59;5033128;28;20291;-62
2021/08/26 08:25:06;;;;;;;8.50;1.75;;;;;;;21.76;58.29;101519.28;5032647;28;20021;-64
2021/08/26 08:27:32;;;;;;;4.93;1.65;;;;;;;21.74;57.89;101514.94;5032648;28;20025;-66
2021/08/26 08:29:57;;;;;;;6.13;1.63;;;;;;;21.76;57.87;101506.00;5032695;28;20072;-62
2021/08/26 08:32:23;;;;;;;4.68;1.42;;;;;;;21.74;58.12;101509.63;5032306;28;20101;-62
2021/08/26 08:34:48;;;;;;;5.00;1.50;;;;;;;21.75;57.95;101513.16;5031666;28;20053;-63
2021/08/26 08:37:13;;;;;;;7.13;1.58;;;;;;;21.76;58.05;101511.31;5032318;28;20033;-65
2021/08/26 08:39:39;;;;;;;5.17;1.40;;;;;;;21.77;57.66;101513.00;5031923;28;20056;-64
2021/08/26 08:42:04;;;;;;;6.57;1.75;;;;;;;21.77;58.11;101505.88;5032342;28;20282;-65
2021/08/26 08:44:29;;;;;;;5.55;2.00;;;;;;;21.81;57.99;101509.09;5032998;28;20032;-64
2021/08/26 08:46:58;;;;;;;6.60;1.63;;;;;;;21.80;58.16;101520.72;5032030;28;20026;-64
2021/08/26 08:49:23;;;;;;;4.80;1.40;;;;;;;21.81;57.85;101501.16;5031767;28;20031;-65
2021/08/26 08:51:51;;;;;;;6.25;1.80;;;;;;;21.80;58.12;101500.31;5031336;28;20041;-61
2021/08/26 08:54:16;;;;;;;4.22;1.70;;;;;;;21.79;58.06;101505.75;5031951;28;20037;-63
2021/08/26 08:56:42;;;;;;;6.40;1.65;;;;;;;21.80;57.46;101497.66;5031350;28;20030;-62
2021/08/26 08:59:07;;;;;;;7.00;1.90;;;;;;;21.80;57.39;101510.09;5031660;28;20419;-61
2021/08/26 09:01:35;;;;;;;8.30;1.70;;;;;;;21.78;57.38;101507.56;5031946;28;20293;-61
2021/08/26 09:04:01;;;;;;;6.03;1.42;;;;;;;21.77;57.63;101505.06;5030888;28;20024;-69
2021/08/26 09:06:43;;;;;;;7.25;1.67;;;;;;;21.77;57.33;101499.75;5031728;28;20108;-66
2021/08/26 09:09:09;;;;;;;6.53;1.67;;;;;;;21.76;57.40;101503.34;5031324;28;20114;-64
2021/08/26 09:11:36;;;;;;;6.78;1.60;;;;;;;21.74;57.32;101506.16;5031829;28;20033;-63
2021/08/26 09:14:13;;;;;;;5.57;1.40;;;;;;;21.73;57.07;101505.31;5031650;28;20025;-63
2021/08/26 09:16:44;;;;;;;6.20;1.65;;;;;;;21.72;57.18;101500.97;5031333;28;20021;-64
2021/08/26 09:19:30;;;;;;;4.75;1.30;;;;;;;21.72;57.20;101497.50;5031758;28;20053;-64
2021/08/26 09:21:57;;;;;;;5.47;1.60;;;;;;;21.70;56.93;101502.09;5031363;28;20549;-63
2021/08/26 09:24:23;;;;;;;4.30;1.38;;;;;;;21.69;57.04;101500.41;5031250;28;20030;-63
2021/08/26 09:26:52;;;;;;;4.30;1.38;;;;;;;21.67;57.22;101492.56;5031302;28;20442;-64
2021/08/26 09:29:18;;;;;;;5.13;1.42;;;;;;;21.65;57.25;101491.88;5031551;28;20029;-64
2021/08/26 09:31:45;;;;;;;6.47;2.08;;;;;;;21.63;57.00;101491.16;5030464;28;20026;-64
2021/08/26 09:34:19;;;;;;;5.00;1.58;;;;;;;21.63;57.05;101498.28;5031680;28;20017;-63
2021/08/26 09:36:47;;;;;;;3.92;1.40;;;;;;;21.61;57.03;101495.75;5031397;28;20036;-63
2021/08/26 09:39:15;;;;;;;5.15;1.50;;;;;;;21.60;57.21;101490.59;5030711;28;20070;-64
2021/08/26 09:42:11;;;;;;;4.18;1.40;;;;;;;21.59;57.12;101495.06;5031554;28;20048;-64
2021/08/26 09:44:37;;;;;;;6.22;1.60;;;;;;;21.59;57.02;101495.06;5030480;28;20084;-64
2021/08/26 09:47:09;;;;;;;3.90;1.38;;;;;;;21.59;56.98;101496.84;5031028;28;20029;-64
2021/08/26 09:49:38;;;;;;;9.60;2.28;;;;;;;21.59;57.06;101500.34;5031541;28;20025;-65
2021/08/26 09:52:16;;;;;;;5.00;1.33;;;;;;;21.59;56.92;101500.34;5030028;28;20068;-64
2021/08/26 09:54:43;;;;;;;4.82;1.35;;;;;;;21.58;56.94;101514.59;5031388;28;20481;-64
2021/08/26 09:57:29;;;;;;;5.15;1.48;;;;;;;21.57;56.92;101512.91;5031603;28;20095;-63
2021/08/26 09:59:57;;;;;;;3.65;1.33;;;;;;;21.55;56.93;101510.41;5030546;28;20032;-64
2021/08/26 10:02:26;;;;;;;4.00;1.52;;;;;;;21.53;57.05;101506.19;5031391;28;20450;-63
2021/08/26 10:04:53;;;;;;;5.00;1.60;;;;;;;21.56;56.69;101511.22;5033209;28;20394;-64
2021/08/26 10:07:19;;;;;;;7.60;1.58;;;;;;;21.55;56.74;101510.41;5034465;28;20031;-65
2021/08/26 10:09:44;;;;;;;4.35;1.52;;;;;;;21.58;56.79;101508.44;5034888;28;20384;-63
2021/08/26 10:12:12;;;;;;;4.60;1.40;;;;;;;21.58;56.76;101509.28;5034287;28;20502;-64
2021/08/26 10:14:43;;;;;;;5.32;1.30;;;;;;;21.59;56.71;101510.97;5034781;28;20028;-63
2021/08/26 10:17:09;;;;;;;4.80;1.60;;;;;;;21.59;56.67;101503.00;5034684;28;20532;-64
2021/08/26 10:19:35;;;;;;;4.47;1.33;;;;;;;21.59;56.98;101505.66;5034026;28;20117;-63
2021/08/26 10:22:00;;;;;;;5.82;1.42;;;;;;;21.60;56.66;101496.72;5034479;28;20461;-64
2021/08/26 10:24:26;;;;;;;4.38;1.30;;;;;;;21.60;56.73;101503.84;5034685;28;20017;-63
2021/08/26 10:26:55;;;;;;;5.07;1.55;;;;;;;21.61;56.75;101502.88;5033655;28;20416;-64
2021/08/26 10:29:21;;;;;;;4.50;1.40;;;;;;;21.59;56.82;101503.00;5034554;28;20021;-63
2021/08/26 10:32:03;;;;;;;4.10;1.25;;;;;;;21.60;56.73;101495.88;5034383;28;20025;-63
2021/08/26 10:35:09;;;;;;;5.38;1.73;;;;;;;21.60;56.77;101502.03;5033871;28;20558;-63
2021/08/26 10:37:53;;;;;;;3.90;1.45;;;;;;;21.60;56.46;101501.19;5033867;28;20544;-63
2021/08/26 10:40:27;;;;;;;;;;;;;;;21.60;56.71;101498.53;5034102;28;20030;-63
2021/08/26 10:42:54;;;;;;;3.83;1.15;;;;;;;21.59;56.42;101496.84;5034281;28;20006;-64
2021/08/26 10:45:25;;;;;;;3.58;1.08;;;;;;;21.58;56.72;101503.97;5034506;28;20029;-64
2021/08/26 10:47:52;;;;;;;3.65;1.10;;;;;;;21.59;56.67;101502.16;5033498;28;20029;-64
2021/08/26 10:50:25;;;;;;;3.40;1.20;;;;;;;21.58;56.53;101508.44;5034159;28;20030;-64
2021/08/26 10:53:08;;;;;;;3.80;1.23;;;;;;;21.56;56.70;101513.88;5033795;28;20041;-64
2021/08/26 10:55:46;;;;;;;4.05;1.23;;;;;;;21.54;56.75;101511.34;5033779;28;20029;-64
2021/08/26 10:58:20;;;;;;;4.25;1.10;;;;;;;21.54;56.75;101511.34;5034354;28;20083;-61
2021/08/26 11:00:46;;;;;;;3.67;1.35;;;;;;;21.53;56.56;101512.31;5033599;28;20113;-62
2021/08/26 11:03:34;;;;;;;4.88;1.25;;;;;;;21.57;56.96;101512.91;5033089;28;20108;-62
2021/08/26 11:06:19;;;;;;;7.63;1.60;;;;;;;21.58;56.92;101508.44;5033665;28;20025;-62
2021/08/26 11:08:55;;;;;;;8.02;1.60;;;;;;;21.58;56.82;101503.97;5032529;28;20347;-63
2021/08/26 11:11:27;;;;;;;4.50;1.40;;;;;;;21.61;56.90;101510.84;5033819;28;20029;-62
2021/08/26 11:14:04;;;;;;;6.50;1.25;;;;;;;21.62;57.15;101508.06;5033278;28;20104;-62
2021/08/26 11:16:29;;;;;;;4.75;1.50;;;;;;;21.65;57.09;101501.63;5033042;28;20112;-62
2021/08/26 11:19:24;;;;;;;7.67;2.50;;;;;;;21.64;57.22;101503.44;5033445;28;20128;-64
2021/08/26 11:21:52;;;;;;;6.50;2.05;;;;;;;21.68;57.41;101510.19;5033127;28;20025;-63
2021/08/26 11:24:22;;;;;;;6.70;1.70;;;;;;;21.71;57.36;101509.94;5032968;28;20025;-64
2021/08/26 11:26:52;;;;;;;9.35;1.95;;;;;;;21.71;57.39;101509.94;5033596;28;20076;-61
2021/08/26 11:29:17;;;;;;;7.28;2.00;;;;;;;21.73;57.44;101509.78;5033881;28;20021;-63
2021/08/26 11:31:54;;;;;;;6.07;2.00;;;;;;;21.74;57.25;101501.66;5032911;28;20029;-61